sensor_id;sensor_type;location;lat;lon;timestamp;temperature;humidity
322;DHT22;148;51.480;7.208;2023-04-06T14:23:53;15.10;43.70
322;DHT22;148;51.480;7.208;2023-04-06T14:26:20;15.00;43.00
322;DHT22;148;51.480;7.208;2023-04-06T14:28:46;14.90;44.10
322;DHT22;148;51.480;7.208;2023-04-06T14:31:15;14.80;45.10
322;DHT22;148;51.480;7.208;2023-04-06T14:33:42;14.80;46.00
322;DHT22;148;51.480;7.208;2023-04-06T14:36:08;14.60;48.00
322;DHT22;148;51.480;7.208;2023-04-06T14:38:34;14.50;49.60
322;DHT22;148;51.480;7.208;2023-04-06T14:41:00;14.40;50.20
322;DHT22;148;51.480;7.208;2023-04-06T14:43:26;14.30;50.90
322;DHT22;148;51.480;7.208;2023-04-06T14:45:52;14.20;51.40
322;DHT22;148;51.480;7.208;2023-04-06T14:48:18;14.30;51.30
322;DHT22;148;51.480;7.208;2023-04-06T14:50:55;14.40;51.10
322;DHT22;148;51.480;7.208;2023-04-06T14:53:22;14.30;50.30
322;DHT22;148;51.480;7.208;2023-04-06T14:55:47;14.30;50.80
322;DHT22;148;51.480;7.208;2023-04-06T14:58:17;14.20;51.70
322;DHT22;148;51.480;7.208;2023-04-06T15:00:42;14.20;52.40
322;DHT22;148;51.480;7.208;2023-04-06T15:03:08;14.20;53.00
322;DHT22;148;51.480;7.208;2023-04-06T15:05:34;14.30;51.60
322;DHT22;148;51.480;7.208;2023-04-06T15:08:00;14.20;51.60
322;DHT22;148;51.480;7.208;2023-04-06T15:10:26;14.00;53.20
322;DHT22;148;51.480;7.208;2023-04-06T15:12:52;14.00;53.90
322;DHT22;148;51.480;7.208;2023-04-06T15:15:17;13.80;54.70
322;DHT22;148;51.480;7.208;2023-04-06T15:17:43;13.70;55.30
322;DHT22;148;51.480;7.208;2023-04-06T15:20:09;13.80;55.30
322;DHT22;148;51.480;7.208;2023-04-06T15:22:35;13.70;55.10
322;DHT22;148;51.480;7.208;2023-04-06T15:25:01;13.70;55.60
322;DHT22;148;51.480;7.208;2023-04-06T15:27:27;13.80;55.50
322;DHT22;148;51.480;7.208;2023-04-06T15:29:52;13.90;55.50
322;DHT22;148;51.480;7.208;2023-04-06T15:32:19;13.90;55.60
322;DHT22;148;51.480;7.208;2023-04-06T15:34:45;13.90;56.10
322;DHT22;148;51.480;7.208;2023-04-06T15:37:10;13.80;56.40
322;DHT22;148;51.480;7.208;2023-04-06T15:39:36;13.70;56.20
322;DHT22;148;51.480;7.208;2023-04-06T15:42:03;13.70;56.70
322;DHT22;148;51.480;7.208;2023-04-06T15:44:29;13.80;56.40
322;DHT22;148;51.480;7.208;2023-04-06T15:46:54;13.70;56.80
322;DHT22;148;51.480;7.208;2023-04-06T15:49:21;13.60;56.20
322;DHT22;148;51.480;7.208;2023-04-06T15:51:47;13.50;56.00
322;DHT22;148;51.480;7.208;2023-04-06T15:54:13;13.40;55.70
322;DHT22;148;51.480;7.208;2023-04-06T15:56:40;13.50;55.40
322;DHT22;148;51.480;7.208;2023-04-06T15:59:05;13.50;54.90
322;DHT22;148;51.480;7.208;2023-04-06T16:01:32;13.60;54.60
322;DHT22;148;51.480;7.208;2023-04-06T16:03:58;13.60;54.70
322;DHT22;148;51.480;7.208;2023-04-06T16:06:23;13.60;55.00
322;DHT22;148;51.480;7.208;2023-04-06T16:08:49;13.50;55.90
322;DHT22;148;51.480;7.208;2023-04-06T16:11:15;13.30;57.30
322;DHT22;148;51.480;7.208;2023-04-06T16:13:40;13.20;58.50
322;DHT22;148;51.480;7.208;2023-04-06T16:16:06;13.00;60.30
322;DHT22;148;51.480;7.208;2023-04-06T16:18:32;12.80;62.70
322;DHT22;148;51.480;7.208;2023-04-06T16:20:58;12.70;64.30
322;DHT22;148;51.480;7.208;2023-04-06T16:23:24;12.60;65.40
322;DHT22;148;51.480;7.208;2023-04-06T16:25:50;12.60;67.40
322;DHT22;148;51.480;7.208;2023-04-06T16:28:17;12.50;68.00
322;DHT22;148;51.480;7.208;2023-04-06T16:30:43;12.40;70.00
322;DHT22;148;51.480;7.208;2023-04-06T16:33:10;12.40;71.40
322;DHT22;148;51.480;7.208;2023-04-06T16:35:41;12.20;71.50
322;DHT22;148;51.480;7.208;2023-04-06T16:38:08;12.20;73.50
322;DHT22;148;51.480;7.208;2023-04-06T16:40:33;12.10;74.50
322;DHT22;148;51.480;7.208;2023-04-06T16:42:59;12.10;74.80
322;DHT22;148;51.480;7.208;2023-04-06T16:45:25;12.00;74.80
322;DHT22;148;51.480;7.208;2023-04-06T16:47:51;11.90;73.20
322;DHT22;148;51.480;7.208;2023-04-06T16:50:17;11.80;72.60
322;DHT22;148;51.480;7.208;2023-04-06T16:52:43;11.70;69.30
322;DHT22;148;51.480;7.208;2023-04-06T16:55:09;11.50;65.10
322;DHT22;148;51.480;7.208;2023-04-06T16:57:35;11.40;62.10
322;DHT22;148;51.480;7.208;2023-04-06T17:00:04;11.30;58.20
322;DHT22;148;51.480;7.208;2023-04-06T17:02:30;11.30;53.00
322;DHT22;148;51.480;7.208;2023-04-06T17:05:00;11.30;49.40
322;DHT22;148;51.480;7.208;2023-04-06T17:07:26;11.20;44.20
322;DHT22;148;51.480;7.208;2023-04-06T17:09:58;11.10;41.40
322;DHT22;148;51.480;7.208;2023-04-06T17:12:23;11.00;39.00
322;DHT22;148;51.480;7.208;2023-04-06T17:14:49;10.90;33.20
322;DHT22;148;51.480;7.208;2023-04-06T17:17:15;10.90;26.40
322;DHT22;148;51.480;7.208;2023-04-06T17:19:45;10.90;22.00
322;DHT22;148;51.480;7.208;2023-04-06T17:22:11;10.80;20.20
322;DHT22;148;51.480;7.208;2023-04-06T17:24:37;10.80;18.20
322;DHT22;148;51.480;7.208;2023-04-06T17:27:02;10.80;15.30
322;DHT22;148;51.480;7.208;2023-04-06T17:29:29;10.80;15.30
322;DHT22;148;51.480;7.208;2023-04-06T17:31:54;10.80;17.10
322;DHT22;148;51.480;7.208;2023-04-06T17:34:20;10.80;16.60
322;DHT22;148;51.480;7.208;2023-04-06T17:36:45;10.70;15.40
322;DHT22;148;51.480;7.208;2023-04-06T17:39:11;10.70;16.00
322;DHT22;148;51.480;7.208;2023-04-06T17:41:38;10.70;17.80
322;DHT22;148;51.480;7.208;2023-04-06T17:44:03;10.70;14.00
322;DHT22;148;51.480;7.208;2023-04-06T17:46:29;10.60;14.20
322;DHT22;148;51.480;7.208;2023-04-06T17:48:55;10.60;14.10
322;DHT22;148;51.480;7.208;2023-04-06T17:51:20;10.30;12.80
322;DHT22;148;51.480;7.208;2023-04-06T17:53:46;10.40;12.20
322;DHT22;148;51.480;7.208;2023-04-06T17:56:12;10.40;13.00
322;DHT22;148;51.480;7.208;2023-04-06T17:58:38;10.40;11.70
322;DHT22;148;51.480;7.208;2023-04-06T18:01:10;10.30;10.40
322;DHT22;148;51.480;7.208;2023-04-06T18:03:36;10.20;10.60
322;DHT22;148;51.480;7.208;2023-04-06T18:06:13;10.30;10.70
322;DHT22;148;51.480;7.208;2023-04-06T18:08:39;10.20;11.10
322;DHT22;148;51.480;7.208;2023-04-06T18:11:05;10.30;9.90
322;DHT22;148;51.480;7.208;2023-04-06T18:13:31;10.30;8.90
322;DHT22;148;51.480;7.208;2023-04-06T18:15:59;10.10;8.00
322;DHT22;148;51.480;7.208;2023-04-06T18:18:26;10.10;7.30
322;DHT22;148;51.480;7.208;2023-04-06T18:20:53;10.10;5.80
322;DHT22;148;51.480;7.208;2023-04-06T18:23:19;9.90;6.10
322;DHT22;148;51.480;7.208;2023-04-06T18:25:45;10.00;4.70
322;DHT22;148;51.480;7.208;2023-04-06T18:28:11;10.00;5.60
322;DHT22;148;51.480;7.208;2023-04-06T18:30:36;9.90;4.20
322;DHT22;148;51.480;7.208;2023-04-06T18:33:02;9.90;4.40
322;DHT22;148;51.480;7.208;2023-04-06T18:35:28;10.00;3.70
322;DHT22;148;51.480;7.208;2023-04-06T18:37:54;9.70;5.60
322;DHT22;148;51.480;7.208;2023-04-06T18:40:49;9.70;2.60
322;DHT22;148;51.480;7.208;2023-04-06T18:43:16;9.50;99.90
322;DHT22;148;51.480;7.208;2023-04-06T18:45:42;9.50;99.90
322;DHT22;148;51.480;7.208;2023-04-06T18:48:08;9.40;99.90
322;DHT22;148;51.480;7.208;2023-04-06T18:50:34;9.40;99.90
322;DHT22;148;51.480;7.208;2023-04-06T18:53:01;9.60;99.90
322;DHT22;148;51.480;7.208;2023-04-06T18:55:31;9.50;99.90
322;DHT22;148;51.480;7.208;2023-04-06T18:57:57;9.50;99.90
322;DHT22;148;51.480;7.208;2023-04-06T19:00:23;9.50;99.90
322;DHT22;148;51.480;7.208;2023-04-06T19:02:50;9.60;99.90
322;DHT22;148;51.480;7.208;2023-04-06T19:05:16;9.60;99.90
322;DHT22;148;51.480;7.208;2023-04-06T19:07:41;9.50;99.90
322;DHT22;148;51.480;7.208;2023-04-06T19:10:09;9.60;99.90
322;DHT22;148;51.480;7.208;2023-04-06T19:12:35;9.60;99.90
322;DHT22;148;51.480;7.208;2023-04-06T19:15:05;9.60;99.90
322;DHT22;148;51.480;7.208;2023-04-06T19:17:31;9.60;99.90
322;DHT22;148;51.480;7.208;2023-04-06T19:19:57;9.60;99.90
322;DHT22;148;51.480;7.208;2023-04-06T19:22:23;9.70;99.90
322;DHT22;148;51.480;7.208;2023-04-06T19:24:49;9.80;99.90
322;DHT22;148;51.480;7.208;2023-04-06T19:27:15;9.70;99.90
322;DHT22;148;51.480;7.208;2023-04-06T19:29:41;9.40;99.90
322;DHT22;148;51.480;7.208;2023-04-06T19:32:07;9.50;99.90
322;DHT22;148;51.480;7.208;2023-04-06T19:34:35;9.50;99.90
322;DHT22;148;51.480;7.208;2023-04-06T19:37:01;9.50;99.90
322;DHT22;148;51.480;7.208;2023-04-06T19:39:27;9.60;99.90
322;DHT22;148;51.480;7.208;2023-04-06T19:41:53;9.60;99.90
322;DHT22;148;51.480;7.208;2023-04-06T19:44:18;9.70;99.90
322;DHT22;148;51.480;7.208;2023-04-06T19:46:44;9.70;99.90
322;DHT22;148;51.480;7.208;2023-04-06T19:49:14;9.50;99.90
322;DHT22;148;51.480;7.208;2023-04-06T19:51:40;9.40;99.90
322;DHT22;148;51.480;7.208;2023-04-06T19:54:06;9.40;99.90
322;DHT22;148;51.480;7.208;2023-04-06T19:56:31;9.50;99.90
322;DHT22;148;51.480;7.208;2023-04-06T19:58:58;9.50;99.90
322;DHT22;148;51.480;7.208;2023-04-06T20:01:23;9.50;99.90
322;DHT22;148;51.480;7.208;2023-04-06T20:03:49;9.30;99.90
322;DHT22;148;51.480;7.208;2023-04-06T20:06:15;9.30;99.90
322;DHT22;148;51.480;7.208;2023-04-06T20:08:42;9.30;99.90
322;DHT22;148;51.480;7.208;2023-04-06T20:11:08;9.30;99.90
322;DHT22;148;51.480;7.208;2023-04-06T20:13:34;9.40;99.90
322;DHT22;148;51.480;7.208;2023-04-06T20:16:00;9.30;99.90
322;DHT22;148;51.480;7.208;2023-04-06T20:18:26;9.30;99.90
322;DHT22;148;51.480;7.208;2023-04-06T20:20:52;9.40;99.90
322;DHT22;148;51.480;7.208;2023-04-06T20:23:19;9.30;99.90
322;DHT22;148;51.480;7.208;2023-04-06T20:25:45;9.30;99.90
322;DHT22;148;51.480;7.208;2023-04-06T20:28:11;9.20;99.90
322;DHT22;148;51.480;7.208;2023-04-06T20:30:37;9.20;99.90
322;DHT22;148;51.480;7.208;2023-04-06T20:33:02;9.30;99.90
322;DHT22;148;51.480;7.208;2023-04-06T20:35:28;9.30;99.90
322;DHT22;148;51.480;7.208;2023-04-06T20:37:55;9.30;99.90
322;DHT22;148;51.480;7.208;2023-04-06T20:40:21;9.30;99.90
322;DHT22;148;51.480;7.208;2023-04-06T20:42:47;9.40;99.90
322;DHT22;148;51.480;7.208;2023-04-06T20:45:13;9.40;99.90
322;DHT22;148;51.480;7.208;2023-04-06T20:47:39;9.50;99.90
322;DHT22;148;51.480;7.208;2023-04-06T20:50:05;9.50;99.90
322;DHT22;148;51.480;7.208;2023-04-06T20:52:31;9.50;99.90
322;DHT22;148;51.480;7.208;2023-04-06T20:54:58;9.50;99.90
322;DHT22;148;51.480;7.208;2023-04-06T20:57:24;9.60;99.90
322;DHT22;148;51.480;7.208;2023-04-06T20:59:50;9.60;99.90
322;DHT22;148;51.480;7.208;2023-04-06T21:02:16;9.60;99.90
322;DHT22;148;51.480;7.208;2023-04-06T21:04:42;9.60;99.90
322;DHT22;148;51.480;7.208;2023-04-06T21:07:08;9.70;99.90
322;DHT22;148;51.480;7.208;2023-04-06T21:09:38;9.50;99.90
322;DHT22;148;51.480;7.208;2023-04-06T21:12:04;9.40;99.90
322;DHT22;148;51.480;7.208;2023-04-06T21:14:31;9.50;99.90
322;DHT22;148;51.480;7.208;2023-04-06T21:16:57;9.60;99.90
322;DHT22;148;51.480;7.208;2023-04-06T21:19:24;9.30;99.90
322;DHT22;148;51.480;7.208;2023-04-06T21:21:52;9.40;99.90
322;DHT22;148;51.480;7.208;2023-04-06T21:24:18;9.50;99.90
322;DHT22;148;51.480;7.208;2023-04-06T21:26:44;9.50;99.90
322;DHT22;148;51.480;7.208;2023-04-06T21:29:09;9.60;99.90
322;DHT22;148;51.480;7.208;2023-04-06T21:31:35;9.60;99.90
322;DHT22;148;51.480;7.208;2023-04-06T21:34:12;9.70;99.90
322;DHT22;148;51.480;7.208;2023-04-06T21:36:39;9.60;99.90
322;DHT22;148;51.480;7.208;2023-04-06T21:39:05;9.60;99.90
322;DHT22;148;51.480;7.208;2023-04-06T21:41:32;9.60;99.90
322;DHT22;148;51.480;7.208;2023-04-06T21:43:58;9.70;99.90
322;DHT22;148;51.480;7.208;2023-04-06T21:46:24;9.80;99.90
322;DHT22;148;51.480;7.208;2023-04-06T21:48:50;9.70;99.90
322;DHT22;148;51.480;7.208;2023-04-06T21:51:20;9.70;99.90
322;DHT22;148;51.480;7.208;2023-04-06T21:53:46;9.80;99.90
322;DHT22;148;51.480;7.208;2023-04-06T21:56:12;9.60;99.90
322;DHT22;148;51.480;7.208;2023-04-06T21:58:38;9.60;99.90
322;DHT22;148;51.480;7.208;2023-04-06T22:01:10;9.80;99.90
322;DHT22;148;51.480;7.208;2023-04-06T22:03:36;9.80;99.90
322;DHT22;148;51.480;7.208;2023-04-06T22:06:06;9.90;99.90
322;DHT22;148;51.480;7.208;2023-04-06T22:08:32;10.00;99.90
322;DHT22;148;51.480;7.208;2023-04-06T22:10:58;10.00;99.90
322;DHT22;148;51.480;7.208;2023-04-06T22:13:25;10.00;99.90
322;DHT22;148;51.480;7.208;2023-04-06T22:15:51;10.10;99.90
322;DHT22;148;51.480;7.208;2023-04-06T22:18:17;10.10;99.90
322;DHT22;148;51.480;7.208;2023-04-06T22:20:42;10.20;99.90
322;DHT22;148;51.480;7.208;2023-04-06T22:23:09;10.20;99.90
322;DHT22;148;51.480;7.208;2023-04-06T22:25:34;10.10;99.90
322;DHT22;148;51.480;7.208;2023-04-06T22:28:00;10.10;99.90
322;DHT22;148;51.480;7.208;2023-04-06T22:30:26;10.20;99.90
322;DHT22;148;51.480;7.208;2023-04-06T22:32:51;10.20;99.90
322;DHT22;148;51.480;7.208;2023-04-06T22:35:17;10.10;99.90
322;DHT22;148;51.480;7.208;2023-04-06T22:37:43;10.20;99.90
322;DHT22;148;51.480;7.208;2023-04-06T22:40:12;10.20;99.90
322;DHT22;148;51.480;7.208;2023-04-06T22:42:38;10.10;99.90
322;DHT22;148;51.480;7.208;2023-04-06T22:45:03;10.00;99.90
322;DHT22;148;51.480;7.208;2023-04-06T22:47:29;10.10;99.90
322;DHT22;148;51.480;7.208;2023-04-06T22:49:55;10.10;99.90
322;DHT22;148;51.480;7.208;2023-04-06T22:52:21;10.00;99.90
322;DHT22;148;51.480;7.208;2023-04-06T22:54:47;10.00;99.90
322;DHT22;148;51.480;7.208;2023-04-06T22:57:13;10.20;99.90
322;DHT22;148;51.480;7.208;2023-04-06T22:59:38;10.10;99.90
322;DHT22;148;51.480;7.208;2023-04-06T23:02:04;10.20;99.90
